Time;durP1;ratioP1;P1;durP2;ratioP2;P2;SDS_P1;SDS_P2;PMS_P1;PMS_P2;Temp;Humidity;BMP_temperature;BMP_pressure;BME280_temperature;BME280_humidity;BME280_pressure;Samples;Min_cycle;Max_cycle;Signal;HPM_P1;HPM_P2
2022/08/03 00:03:55;;;;;;;0.88;0.88;;;23.00;58.90;;;;;;20738271;28;20099;-75
2022/08/03 00:13:56;;;;;;;1.05;0.73;;;23.00;58.90;;;;;;20725398;28;20044;-75
2022/08/03 00:23:56;;;;;;;1.30;0.90;;;23.00;58.90;;;;;;20750066;28;20332;-75
2022/08/03 00:33:57;;;;;;;1.08;0.98;;;23.00;59.00;;;;;;20717651;28;20045;-73
2022/08/03 00:43:57;;;;;;;1.23;0.98;;;23.00;59.00;;;;;;20732220;28;20757;-76
2022/08/03 00:53:58;;;;;;;2.03;0.98;;;23.00;59.00;;;;;;20748979;28;20030;-76
2022/08/03 01:03:58;;;;;;;1.23;0.80;;;23.00;59.00;;;;;;21113252;22;20175;-77
2022/08/03 01:14:05;;;;;;;1.10;0.95;;;23.00;59.00;;;;;;20979443;28;20029;-76
2022/08/03 01:24:14;;;;;;;1.30;1.08;;;23.00;59.10;;;;;;20978517;28;20045;-76
2022/08/03 01:34:15;;;;;;;1.45;0.80;;;23.00;59.10;;;;;;20978134;28;20040;-78
2022/08/03 01:44:15;;;;;;;1.10;0.90;;;23.00;59.10;;;;;;20976381;28;20045;-77
2022/08/03 01:54:16;;;;;;;1.23;1.13;;;23.00;59.10;;;;;;20992145;28;20074;-76
2022/08/03 02:04:17;;;;;;;3.28;1.20;;;22.90;59.10;;;;;;20974640;28;20044;-76
2022/08/03 02:14:17;;;;;;;2.25;0.98;;;22.90;59.20;;;;;;20974202;28;20421;-78
2022/08/03 02:24:18;;;;;;;2.17;0.90;;;22.90;59.20;;;;;;20967174;28;20440;-77
2022/08/03 02:34:20;;;;;;;1.48;1.02;;;22.90;59.20;;;;;;20972125;28;20040;-76
2022/08/03 02:44:24;;;;;;;2.08;1.05;;;22.90;59.20;;;;;;20989308;28;20531;-77
2022/08/03 02:54:25;;;;;;;1.08;0.90;;;22.90;59.20;;;;;;20972000;28;20033;-76
2022/08/03 03:04:27;;;;;;;1.52;1.00;;;22.90;59.30;;;;;;20956572;28;20064;-77
2022/08/03 03:14:28;;;;;;;1.77;1.42;;;22.90;59.30;;;;;;20971136;28;20036;-80
2022/08/03 03:24:29;;;;;;;3.25;1.00;;;22.90;59.30;;;;;;20987642;28;20116;-76
2022/08/03 03:34:29;;;;;;;1.90;1.00;;;22.90;59.40;;;;;;20987182;28;20488;-76
2022/08/03 03:44:30;;;;;;;1.83;1.20;;;22.90;59.30;;;;;;20956720;28;20071;-76
2022/08/03 03:54:41;;;;;;;0.90;0.80;;;22.90;59.40;;;;;;20984975;28;20282;-79
2022/08/03 04:15:01;;;;;;;1.17;1.08;;;22.90;59.40;;;;;;21000240;28;20032;-76
2022/08/03 04:25:03;;;;;;;1.27;1.05;;;22.90;59.40;;;;;;20966533;28;20094;-77
2022/08/03 04:35:05;;;;;;;1.73;1.20;;;22.80;59.40;;;;;;20949357;28;20111;-77
2022/08/03 04:45:06;;;;;;;1.55;1.00;;;22.90;59.40;;;;;;20964966;28;20075;-77
2022/08/03 04:55:06;;;;;;;1.27;1.17;;;22.80;59.40;;;;;;20980813;28;20024;-78
2022/08/03 05:05:07;;;;;;;1.50;1.10;;;22.80;59.40;;;;;;20980217;28;20081;-77
2022/08/03 05:15:08;;;;;;;1.48;1.15;;;22.80;60.00;;;;;;20980542;28;20066;-77
2022/08/03 05:25:09;;;;;;;1.58;1.13;;;22.90;59.40;;;;;;20962094;28;20050;-76
2022/08/03 05:35:10;;;;;;;1.73;1.20;;;22.80;59.30;;;;;;20977896;28;20068;-75
2022/08/03 05:45:13;;;;;;;1.50;1.30;;;22.80;59.20;;;;;;20953706;28;20066;-75
2022/08/03 05:55:14;;;;;;;1.83;1.35;;;22.90;59.40;;;;;;20973745;28;20029;-73
2022/08/03 06:05:15;;;;;;;1.85;1.20;;;22.90;59.40;;;;;;20979342;28;20040;-72
2022/08/03 06:15:15;;;;;;;1.70;1.20;;;22.90;59.40;;;;;;20904843;28;20047;-73
2022/08/03 06:25:16;;;;;;;1.85;1.20;;;22.90;59.40;;;;;;20893913;28;20400;-70
2022/08/03 06:35:16;;;;;;;3.08;1.20;;;22.90;59.40;;;;;;20968703;28;20040;-72
2022/08/03 06:45:17;;;;;;;2.97;1.65;;;22.90;59.40;;;;;;20935974;28;20028;-74
2022/08/03 06:55:18;;;;;;;1.60;1.20;;;23.00;59.40;;;;;;20968423;28;20120;-72
2022/08/03 07:05:18;;;;;;;1.23;1.07;;;23.00;59.50;;;;;;20969842;28;20446;-74
2022/08/03 07:15:20;;;;;;;2.22;1.52;;;23.10;59.50;;;;;;20934549;28;20318;-74
2022/08/03 07:25:21;;;;;;;1.77;1.38;;;23.10;59.50;;;;;;20982166;28;20067;-75
2022/08/03 07:35:21;;;;;;;2.20;1.60;;;23.10;59.50;;;;;;20986020;28;20518;-76
2022/08/03 07:45:23;;;;;;;1.80;1.30;;;23.20;59.50;;;;;;20971461;28;20291;-79
2022/08/03 07:55:24;;;;;;;2.03;1.42;;;23.20;59.50;;;;;;20985176;28;20040;-76
2022/08/03 08:05:25;;;;;;;2.38;1.20;;;23.20;59.40;;;;;;20981021;28;20044;-75
2022/08/03 08:15:25;;;;;;;1.83;1.33;;;23.20;59.30;;;;;;20975936;28;20028;-74
2022/08/03 08:25:26;;;;;;;2.20;1.38;;;23.30;59.50;;;;;;20958911;28;20044;-77
2022/08/03 08:35:27;;;;;;;1.95;1.45;;;23.30;59.30;;;;;;20941131;28;20056;-78
2022/08/03 08:45:27;;;;;;;2.08;1.40;;;23.30;59.30;;;;;;20935708;28;20036;-77
2022/08/03 08:55:28;;;;;;;2.65;1.80;;;23.40;59.30;;;;;;20956365;28;20375;-77
2022/08/03 09:05:31;;;;;;;4.18;1.50;;;23.40;59.30;;;;;;20921761;28;1002205;-76
2022/08/03 09:15:32;;;;;;;2.35;1.42;;;23.40;59.30;;;;;;20990258;28;20139;-73
2022/08/03 09:25:37;;;;;;;3.60;1.65;;;23.40;59.30;;;;;;20977696;28;20123;-75
2022/08/03 09:35:48;;;;;;;3.65;1.60;;;23.50;59.40;;;;;;20976186;28;20616;-74
2022/08/03 09:45:49;;;;;;;1.67;1.40;;;23.50;59.40;;;;;;21007359;28;20048;-76
2022/08/03 09:56:01;;;;;;;1.87;1.30;;;23.50;59.40;;;;;;21034230;28;20455;-75
2022/08/03 10:06:16;;;;;;;2.45;1.40;;;23.60;59.40;;;;;;20929158;28;20302;-76
2022/08/03 10:16:17;;;;;;;2.13;1.20;;;23.60;59.40;;;;;;20971984;28;20036;-78
2022/08/03 10:26:18;;;;;;;3.92;1.70;;;23.60;59.40;;;;;;20883021;28;20041;-72
2022/08/03 10:36:21;;;;;;;1.35;1.13;;;23.60;59.40;;;;;;20953837;28;20375;-74
2022/08/03 10:46:21;;;;;;;2.80;1.58;;;23.60;59.50;;;;;;20956466;28;20036;-73
2022/08/03 11:07:22;;;;;;;1.67;1.10;;;23.60;59.40;;;;;;20986607;28;20076;-78
2022/08/03 11:17:22;;;;;;;1.63;1.00;;;23.70;59.40;;;;;;20949036;28;20048;-79
2022/08/03 11:27:25;;;;;;;2.38;1.27;;;23.70;59.40;;;;;;20966898;28;20040;-78
2022/08/03 11:37:25;;;;;;;2.47;1.35;;;23.70;59.40;;;;;;20949907;28;20029;-78
2022/08/03 11:47:28;;;;;;;2.90;1.25;;;23.70;59.40;;;;;;20982394;28;20045;-78
2022/08/03 11:57:32;;;;;;;1.75;1.45;;;23.70;59.40;;;;;;20963984;28;20479;-78
2022/08/03 12:07:33;;;;;;;1.25;0.95;;;23.70;59.40;;;;;;20953925;28;20375;-79
2022/08/03 12:17:38;;;;;;;1.75;0.80;;;23.70;59.30;;;;;;21012405;28;20037;-77
2022/08/03 12:27:39;;;;;;;1.50;0.90;;;23.80;59.40;;;;;;20997783;28;20119;-75
2022/08/03 12:37:39;;;;;;;1.93;0.93;;;23.80;59.30;;;;;;20981542;28;20057;-76
2022/08/03 12:47:57;;;;;;;0.88;0.80;;;23.80;59.20;;;;;;20963770;28;20294;-77
2022/08/03 12:57:59;;;;;;;2.15;1.38;;;23.80;59.20;;;;;;20966120;28;20060;-73
2022/08/03 13:08:00;;;;;;;1.63;1.20;;;23.90;59.10;;;;;;20964836;28;20044;-75
2022/08/03 13:18:00;;;;;;;1.30;0.90;;;23.90;59.00;;;;;;20961671;28;20486;-76
2022/08/03 13:28:03;;;;;;;1.13;0.95;;;23.90;59.00;;;;;;20962628;28;20291;-73
2022/08/03 13:38:04;;;;;;;1.58;1.17;;;24.00;59.00;;;;;;20985389;28;20032;-76
2022/08/03 13:48:05;;;;;;;0.90;0.68;;;24.00;58.90;;;;;;20891869;28;20102;-72
2022/08/03 13:58:08;;;;;;;1.95;1.00;;;24.10;58.90;;;;;;20951545;28;20025;-71
2022/08/03 14:08:09;;;;;;;7.70;2.20;;;24.20;58.80;;;;;;20978819;28;20123;-74
2022/08/03 14:18:10;;;;;;;2.05;1.05;;;24.30;58.70;;;;;;20977324;28;20486;-72
2022/08/03 14:28:10;;;;;;;1.15;0.90;;;24.40;58.60;;;;;;20984300;28;20064;-74
2022/08/03 14:38:11;;;;;;;8.23;3.40;;;24.50;58.60;;;;;;20980073;28;20047;-78
2022/08/03 14:48:12;;;;;;;9.00;3.87;;;24.60;58.60;;;;;;20943085;28;20298;-78
2022/08/03 14:58:14;;;;;;;9.05;3.53;;;24.60;58.60;;;;;;20957367;28;20297;-81
2022/08/03 15:08:17;;;;;;;13.35;3.20;;;24.60;59.40;;;;;;20946972;28;20055;-80
2022/08/03 15:18:21;;;;;;;6.50;3.22;;;24.60;58.70;;;;;;20974226;28;20048;-75
2022/08/03 15:28:22;;;;;;;5.37;2.73;;;24.70;58.70;;;;;;20956096;28;20790;-71
2022/08/03 15:38:22;;;;;;;4.07;1.98;;;24.70;58.60;;;;;;20969653;28;20104;-74
2022/08/03 15:48:24;;;;;;;2.83;1.65;;;24.80;58.60;;;;;;20985078;28;20044;-73
2022/08/03 15:58:28;;;;;;;4.88;1.67;;;24.90;58.40;;;;;;20968246;28;20470;-76
2022/08/03 16:08:29;;;;;;;3.83;1.92;;;25.00;58.30;;;;;;20971098;28;20050;-77
2022/08/03 16:18:30;;;;;;;4.30;1.77;;;25.00;58.10;;;;;;21004748;28;20060;-81
2022/08/03 16:28:32;;;;;;;2.22;1.25;;;25.20;58.20;;;;;;20965754;28;20294;-74
2022/08/03 16:38:33;;;;;;;4.15;1.52;;;25.20;58.10;;;;;;20966484;28;20478;-76
2022/08/03 16:48:37;;;;;;;4.80;1.27;;;25.20;58.10;;;;;;21022572;28;20047;-75
2022/08/03 16:58:38;;;;;;;2.80;1.00;;;25.20;58.40;;;;;;21014369;28;20143;-74
2022/08/03 17:08:38;;;;;;;2.22;1.20;;;25.10;58.50;;;;;;20997425;28;20051;-72
2022/08/03 17:18:51;;;;;;;2.07;0.90;;;25.00;58.80;;;;;;20963158;28;20032;-68
2022/08/03 17:28:52;;;;;;;4.32;1.20;;;24.90;59.10;;;;;;20993113;28;20052;-70
2022/08/03 17:38:52;;;;;;;2.87;1.10;;;24.90;59.30;;;;;;20959631;28;20214;-68
2022/08/03 17:48:53;;;;;;;3.17;0.88;;;24.90;60.10;;;;;;20970259;28;20317;-77
2022/08/03 17:59:26;;;;;;;1.55;0.77;;;24.90;59.60;;;;;;20911724;28;20390;-78
2022/08/03 18:09:27;;;;;;;1.48;0.50;;;24.90;59.80;;;;;;20896085;28;20045;-75
2022/08/03 18:19:28;;;;;;;1.55;1.10;;;24.90;59.90;;;;;;20890962;28;20087;-73
2022/08/03 18:29:29;;;;;;;3.30;1.20;;;24.90;60.00;;;;;;20922075;28;20471;-74
2022/08/03 18:39:30;;;;;;;3.58;0.90;;;25.00;59.70;;;;;;20972784;28;20020;-74
2022/08/03 18:49:41;;;;;;;1.10;0.70;;;27.40;55.10;;;;;;20965855;28;20071;-75
2022/08/03 18:59:53;;;;;;;2.05;0.65;;;30.60;49.10;;;;;;20999128;28;20032;-74
2022/08/03 19:09:59;;;;;;;3.10;1.13;;;32.40;45.70;;;;;;20993713;28;20057;-77
2022/08/03 19:20:03;;;;;;;2.00;0.93;;;33.30;43.60;;;;;;20955943;28;20028;-76
2022/08/03 19:30:05;;;;;;;1.98;0.90;;;33.70;42.50;;;;;;20958925;28;20039;-78
2022/08/03 19:40:07;;;;;;;1.43;0.70;;;33.90;41.80;;;;;;20951897;28;20366;-75
2022/08/03 19:50:08;;;;;;;1.00;0.60;;;33.90;41.50;;;;;;20987038;28;20032;-74
2022/08/03 20:00:11;;;;;;;1.35;0.52;;;34.00;41.30;;;;;;20991602;28;20044;-75
2022/08/03 20:10:11;;;;;;;3.65;0.90;;;33.90;41.20;;;;;;20986330;28;20036;-76
2022/08/03 20:20:12;;;;;;;0.95;0.60;;;33.90;41.20;;;;;;21003246;28;20033;-75
2022/08/03 20:30:13;;;;;;;2.80;0.60;;;33.80;41.10;;;;;;20984687;28;20078;-78
2022/08/03 20:40:13;;;;;;;1.67;0.50;;;33.80;41.10;;;;;;20999777;28;20028;-77
2022/08/03 20:50:14;;;;;;;0.87;0.57;;;33.80;41.20;;;;;;20981915;28;20074;-76
2022/08/03 21:00:16;;;;;;;2.28;0.60;;;33.80;41.10;;;;;;20982541;28;20032;-78
2022/08/03 21:10:17;;;;;;;2.05;0.63;;;33.80;41.10;;;;;;20999753;28;20033;-76
2022/08/03 21:20:18;;;;;;;1.40;0.80;;;33.80;41.20;;;;;;20998957;28;20169;-76
2022/08/03 21:30:20;;;;;;;1.37;0.70;;;33.70;41.20;;;;;;20964877;28;20123;-74
2022/08/03 21:40:21;;;;;;;1.67;0.80;;;33.70;41.20;;;;;;20963897;28;20048;-75
2022/08/03 21:50:22;;;;;;;0.80;0.77;;;33.70;41.30;;;;;;20980050;28;20043;-77
2022/08/03 22:00:22;;;;;;;0.93;0.70;;;33.60;41.20;;;;;;20982371;28;20466;-74
2022/08/03 22:10:23;;;;;;;2.38;0.63;;;33.70;41.30;;;;;;21078837;28;20058;-75
2022/08/03 22:20:23;;;;;;;0.73;0.50;;;33.60;41.30;;;;;;21044096;28;20033;-74
2022/08/03 22:30:24;;;;;;;0.87;0.87;;;33.60;41.20;;;;;;21076369;28;20146;-74
2022/08/03 22:40:25;;;;;;;1.08;0.70;;;33.60;41.30;;;;;;21042429;28;20293;-75
2022/08/03 22:50:26;;;;;;;1.40;0.85;;;33.60;41.40;;;;;;21059427;28;20447;-76
2022/08/03 23:00:26;;;;;;;1.48;1.00;;;33.50;41.30;;;;;;21058893;28;20035;-74
2022/08/03 23:10:27;;;;;;;1.05;0.77;;;33.50;41.40;;;;;;21074837;28;20398;-75
2022/08/03 23:20:27;;;;;;;1.73;1.00;;;33.50;41.40;;;;;;21057488;28;20063;-74
2022/08/03 23:30:28;;;;;;;1.67;0.75;;;33.50;41.40;;;;;;21057094;28;20078;-75
2022/08/03 23:40:29;;;;;;;0.75;0.70;;;33.50;41.50;;;;;;21057198;28;20466;-75
2022/08/03 23:50:36;;;;;;;1.52;1.05;;;33.50;41.50;;;;;;21055589;28;20394;-74
